Time;durP1;ratioP1;P1;durP2;ratioP2;P2;SDS_P1;SDS_P2;PMS_P1;PMS_P2;Temp;Humidity;BMP_temperature;BMP_pressure;BME280_temperature;BME280_humidity;BME280_pressure;Samples;Min_cycle;Max_cycle;Signal;HPM_P1;HPM_P2
2023/04/02 00:00:34;;;;;;;2.90;2.60;;;18.80;47.30;;;;;;5011442;28;20470;-59
2023/04/02 00:03:02;;;;;;;3.07;2.83;;;18.90;47.30;;;;;;5014989;28;20427;-64
2023/04/02 00:05:49;;;;;;;2.80;2.50;;;18.80;47.30;;;;;;5014570;28;20438;-61
2023/04/02 00:08:28;;;;;;;2.63;2.43;;;18.80;47.30;;;;;;5011790;28;20438;-59
2023/04/02 00:10:59;;;;;;;2.90;2.70;;;18.80;47.30;;;;;;5013574;28;20484;-60
2023/04/02 00:13:50;;;;;;;2.90;2.70;;;18.80;47.20;;;;;;5009027;28;20443;-64
2023/04/02 00:16:22;;;;;;;2.70;2.50;;;18.80;47.20;;;;;;5012675;28;20453;-63
2023/04/02 00:18:52;;;;;;;2.67;2.47;;;18.80;47.30;;;;;;5016148;28;20895;-65
2023/04/02 00:21:31;;;;;;;3.20;2.47;;;18.80;47.30;;;;;;5020067;28;20417;-61
2023/04/02 00:24:00;;;;;;;2.70;2.50;;;18.80;47.30;;;;;;5012519;28;20516;-62
2023/04/02 00:26:36;;;;;;;2.70;2.40;;;18.80;47.30;;;;;;5017259;28;20442;-60
2023/04/02 00:29:05;;;;;;;2.70;2.30;;;18.80;47.30;;;;;;5017842;28;20476;-61
2023/04/02 00:31:32;;;;;;;2.53;2.20;;;18.80;47.30;;;;;;5013975;28;20463;-60
2023/04/02 00:34:00;;;;;;;2.60;2.40;;;18.80;47.30;;;;;;5017845;28;20555;-61
2023/04/02 00:36:29;;;;;;;2.40;2.20;;;18.80;47.20;;;;;;5013778;28;20450;-60
2023/04/02 00:38:57;;;;;;;2.43;2.23;;;18.80;47.30;;;;;;5016209;28;20518;-61
2023/04/02 00:41:28;;;;;;;2.20;2.00;;;18.80;47.30;;;;;;5015432;28;20517;-59
2023/04/02 00:43:57;;;;;;;2.10;2.00;;;18.80;47.30;;;;;;5014254;28;21048;-63
2023/04/02 00:46:29;;;;;;;2.60;2.40;;;18.80;47.30;;;;;;5010653;28;20463;-60
2023/04/02 00:49:22;;;;;;;2.33;2.13;;;18.80;47.30;;;;;;5014806;28;20452;-60
2023/04/02 00:52:03;;;;;;;2.80;2.53;;;18.80;47.30;;;;;;5009154;28;20706;-59
2023/04/02 00:54:36;;;;;;;2.53;2.33;;;18.80;47.20;;;;;;5013947;28;20504;-59
2023/04/02 00:57:01;;;;;;;2.90;2.70;;;18.80;47.30;;;;;;5008509;28;21062;-60
2023/04/02 00:59:34;;;;;;;2.40;2.20;;;18.80;47.30;;;;;;5016691;28;20446;-61
2023/04/02 01:02:25;;;;;;;2.20;2.00;;;18.80;47.30;;;;;;5011404;28;20288;-60
2023/04/02 01:05:04;;;;;;;2.23;2.03;;;18.80;47.30;;;;;;5003238;28;20478;-63
2023/04/02 01:08:00;;;;;;;3.37;2.37;;;18.80;47.30;;;;;;5011714;28;20515;-59
2023/04/02 01:10:55;;;;;;;5.00;2.30;;;18.80;47.20;;;;;;5015068;28;20452;-62
2023/04/02 01:13:27;;;;;;;8.07;2.20;;;18.80;47.30;;;;;;5012932;28;20459;-61
2023/04/02 01:16:04;;;;;;;4.60;2.47;;;18.80;47.30;;;;;;5010783;28;20910;-60
2023/04/02 01:18:49;;;;;;;3.40;2.13;;;18.80;47.30;;;;;;5012096;28;20423;-61
2023/04/02 01:21:24;;;;;;;2.23;2.13;;;18.80;47.30;;;;;;5010070;28;20888;-60
2023/04/02 01:24:10;;;;;;;2.20;2.10;;;18.80;47.30;;;;;;5011963;28;20426;-61
2023/04/02 01:26:56;;;;;;;2.23;2.03;;;18.80;47.30;;;;;;5014553;28;20745;-63
2023/04/02 01:29:33;;;;;;;2.00;1.87;;;18.80;47.20;;;;;;5013406;28;20488;-61
2023/04/02 01:32:06;;;;;;;2.50;2.10;;;18.80;47.30;;;;;;5014469;28;21036;-63
2023/04/02 01:34:33;;;;;;;2.27;2.07;;;18.80;47.30;;;;;;5011272;28;20460;-65
2023/04/02 01:37:11;;;;;;;2.00;1.90;;;18.80;48.10;;;;;;5011422;28;20460;-64
2023/04/02 01:39:39;;;;;;;2.30;2.10;;;18.80;47.30;;;;;;5009083;28;20798;-60
2023/04/02 01:42:19;;;;;;;1.70;1.60;;;18.80;47.30;;;;;;5009624;28;20470;-64
2023/04/02 01:44:52;;;;;;;2.17;1.97;;;18.70;47.20;;;;;;5012776;28;20464;-60
2023/04/02 01:47:27;;;;;;;2.50;2.30;;;18.80;47.30;;;;;;5007538;28;20543;-65
2023/04/02 01:50:00;;;;;;;1.70;1.60;;;18.80;47.30;;;;;;5010903;28;20913;-63
2023/04/02 01:52:37;;;;;;;1.87;1.77;;;18.70;47.20;;;;;;5009010;28;20477;-60
2023/04/02 01:55:04;;;;;;;2.00;1.87;;;18.80;47.30;;;;;;5014749;28;20500;-60
2023/04/02 01:57:30;;;;;;;2.03;1.80;;;18.70;47.20;;;;;;5003852;28;20476;-60
2023/04/02 01:59:57;;;;;;;2.20;1.73;;;18.70;47.20;;;;;;5016143;28;20432;-61
2023/04/02 02:02:23;;;;;;;2.00;1.90;;;18.70;47.20;;;;;;5011723;28;20224;-63
2023/04/02 02:04:48;;;;;;;2.30;2.10;;;18.80;47.30;;;;;;5010534;28;20448;-65
2023/04/02 02:07:16;;;;;;;1.93;1.80;;;18.70;47.30;;;;;;5012298;28;20713;-61
2023/04/02 02:09:43;;;;;;;2.40;2.20;;;18.80;47.30;;;;;;5015401;28;20235;-59
2023/04/02 02:12:12;;;;;;;1.93;1.73;;;18.70;47.20;;;;;;5012284;28;20431;-59
2023/04/02 02:14:38;;;;;;;2.60;2.40;;;18.70;47.20;;;;;;5013388;28;20443;-60
2023/04/02 02:17:12;;;;;;;1.77;1.67;;;18.70;47.20;;;;;;5013208;28;21062;-59
2023/04/02 02:19:41;;;;;;;1.77;1.67;;;18.80;47.30;;;;;;5013634;28;20895;-61
2023/04/02 02:22:29;;;;;;;1.90;1.70;;;18.80;47.30;;;;;;5012255;28;20467;-60
2023/04/02 02:24:57;;;;;;;2.10;1.97;;;18.80;47.30;;;;;;5000053;28;20435;-63
2023/04/02 02:27:22;;;;;;;1.70;1.60;;;18.70;47.10;;;;;;5008231;28;21395;-59
2023/04/02 02:30:05;;;;;;;2.03;1.70;;;18.70;47.20;;;;;;5011913;28;20491;-61
2023/04/02 02:32:35;;;;;;;2.33;2.13;;;18.80;47.20;;;;;;5006915;28;20253;-61
2023/04/02 02:35:02;;;;;;;1.70;1.60;;;18.80;47.30;;;;;;5011647;28;20484;-61
2023/04/02 02:37:31;;;;;;;2.00;1.90;;;18.70;47.40;;;;;;5005222;28;20959;-59
2023/04/02 02:39:59;;;;;;;1.70;1.60;;;18.70;47.20;;;;;;5011193;28;20886;-61
2023/04/02 02:42:35;;;;;;;2.30;2.10;;;18.70;47.20;;;;;;5007853;28;20452;-59
2023/04/02 02:45:06;;;;;;;2.23;2.13;;;18.80;47.20;;;;;;5004461;28;20450;-61
2023/04/02 02:47:35;;;;;;;2.70;2.50;;;18.70;47.10;;;;;;5013365;28;20471;-60
2023/04/02 02:50:07;;;;;;;1.87;1.77;;;18.70;47.20;;;;;;5008677;28;20439;-61
2023/04/02 02:52:37;;;;;;;2.10;1.90;;;18.70;47.20;;;;;;5008456;28;20439;-60
2023/04/02 02:55:14;;;;;;;1.83;1.73;;;18.70;47.20;;;;;;5011526;28;21018;-60
2023/04/02 02:57:48;;;;;;;2.13;1.57;;;18.70;47.20;;;;;;5003706;28;20519;-60
2023/04/02 03:00:18;;;;;;;2.00;1.80;;;18.70;47.20;;;;;;5006163;28;20456;-59
2023/04/02 03:02:45;;;;;;;1.80;1.70;;;18.70;47.10;;;;;;5013123;28;20547;-60
2023/04/02 03:05:18;;;;;;;2.57;1.70;;;18.70;47.20;;;;;;5012744;28;20981;-59
2023/04/02 03:07:43;;;;;;;2.20;2.10;;;18.80;47.30;;;;;;5014969;28;20981;-61
2023/04/02 03:10:33;;;;;;;2.10;1.87;;;18.80;47.30;;;;;;5012184;28;20948;-61
2023/04/02 03:13:13;;;;;;;2.13;1.93;;;18.70;47.20;;;;;;5008463;28;20226;-60
2023/04/02 03:15:50;;;;;;;2.77;1.57;;;18.70;47.20;;;;;;5008251;28;20453;-60
2023/04/02 03:18:36;;;;;;;1.80;1.70;;;18.70;47.20;;;;;;5006216;28;20483;-61
2023/04/02 03:21:21;;;;;;;2.10;2.00;;;18.70;47.20;;;;;;5002938;28;20466;-60
2023/04/02 03:24:19;;;;;;;1.90;1.70;;;18.70;47.20;;;;;;5007683;28;20438;-61
2023/04/02 03:27:10;;;;;;;1.80;1.70;;;18.70;47.20;;;;;;4998190;28;20487;-62
2023/04/02 03:29:45;;;;;;;1.60;1.50;;;18.70;47.20;;;;;;5012285;28;20463;-61
2023/04/02 03:32:25;;;;;;;1.80;1.70;;;18.70;47.30;;;;;;5007874;28;20422;-59
2023/04/02 03:35:18;;;;;;;1.63;1.53;;;18.70;47.30;;;;;;5011817;28;20554;-60
2023/04/02 03:38:10;;;;;;;1.83;1.73;;;18.70;47.30;;;;;;4987664;28;20457;-61
2023/04/02 03:40:44;;;;;;;1.50;1.40;;;18.70;47.20;;;;;;5009938;28;20457;-61
2023/04/02 03:43:25;;;;;;;1.60;1.50;;;18.70;47.20;;;;;;5014147;28;20463;-60
2023/04/02 03:45:57;;;;;;;1.57;1.47;;;18.70;47.10;;;;;;5018385;28;20435;-61
2023/04/02 03:48:44;;;;;;;2.10;2.00;;;18.70;47.20;;;;;;5012384;28;20930;-60
2023/04/02 03:51:34;;;;;;;1.50;1.40;;;18.70;47.10;;;;;;5015731;28;20510;-60
2023/04/02 03:54:01;;;;;;;1.63;1.53;;;18.70;47.10;;;;;;5013396;28;20427;-62
2023/04/02 03:56:38;;;;;;;1.53;1.43;;;18.70;47.20;;;;;;5017024;28;20460;-60
2023/04/02 03:59:24;;;;;;;1.80;1.70;;;18.70;47.20;;;;;;5020733;28;20451;-60
2023/04/02 04:02:10;;;;;;;2.27;2.00;;;18.70;47.10;;;;;;5014100;28;20542;-62
2023/04/02 04:04:40;;;;;;;1.53;1.43;;;18.70;47.10;;;;;;5012060;28;20533;-65
2023/04/02 04:07:12;;;;;;;1.90;1.80;;;18.70;47.10;;;;;;5017910;28;20533;-61
2023/04/02 04:09:40;;;;;;;1.77;1.67;;;18.70;47.20;;;;;;5016154;28;21264;-65
2023/04/02 04:12:41;;;;;;;1.83;1.73;;;18.70;47.20;;;;;;5019087;28;20462;-59
2023/04/02 04:15:21;;;;;;;1.50;1.40;;;18.70;47.10;;;;;;5016332;28;20452;-59
2023/04/02 04:18:02;;;;;;;1.70;1.60;;;18.70;47.10;;;;;;5021461;28;20456;-61
2023/04/02 04:20:35;;;;;;;1.60;1.50;;;18.70;47.10;;;;;;5016923;28;20502;-60
2023/04/02 04:23:24;;;;;;;1.60;1.50;;;18.70;47.20;;;;;;5020286;28;20468;-60
2023/04/02 04:26:08;;;;;;;1.50;1.40;;;18.70;47.20;;;;;;5015996;28;20467;-62
2023/04/02 04:28:49;;;;;;;1.43;1.33;;;18.70;47.10;;;;;;5019907;28;20445;-60
2023/04/02 04:31:37;;;;;;;1.70;1.60;;;18.70;47.20;;;;;;5020918;28;20796;-60
2023/04/02 04:34:18;;;;;;;1.57;1.47;;;18.70;47.10;;;;;;5016417;28;20939;-63
2023/04/02 04:36:54;;;;;;;2.03;1.63;;;18.70;47.20;;;;;;5022408;28;20467;-59
2023/04/02 04:39:38;;;;;;;1.60;1.50;;;18.70;47.20;;;;;;5020222;28;20422;-65
2023/04/02 04:42:05;;;;;;;1.90;1.80;;;18.70;47.90;;;;;;5018448;28;20783;-59
2023/04/02 04:44:45;;;;;;;1.60;1.50;;;18.70;47.20;;;;;;5019756;28;20513;-60
2023/04/02 04:47:17;;;;;;;1.60;1.50;;;18.70;47.10;;;;;;5022397;28;20939;-60
2023/04/02 04:49:49;;;;;;;1.67;1.57;;;18.70;47.10;;;;;;5017406;28;21001;-59
2023/04/02 04:52:37;;;;;;;1.77;1.40;;;18.70;47.10;;;;;;5011568;28;20467;-61
2023/04/02 04:55:24;;;;;;;1.70;1.60;;;18.70;47.10;;;;;;5013277;28;20887;-59
2023/04/02 04:58:03;;;;;;;1.50;1.40;;;18.70;47.10;;;;;;5011369;28;20528;-64
2023/04/02 05:00:59;;;;;;;3.47;2.13;;;18.70;47.10;;;;;;5017257;28;20470;-62
2023/04/02 05:03:42;;;;;;;1.60;1.50;;;18.70;47.00;;;;;;5015423;28;20459;-61
2023/04/02 05:06:22;;;;;;;1.70;1.60;;;18.70;47.00;;;;;;5018601;28;20466;-59
2023/04/02 05:08:54;;;;;;;2.13;1.43;;;18.80;47.10;;;;;;5017367;28;20987;-62
2023/04/02 05:11:32;;;;;;;1.77;1.67;;;18.70;47.00;;;;;;5018220;28;20964;-61
2023/04/02 05:14:03;;;;;;;1.40;1.30;;;18.70;47.00;;;;;;5025162;28;20807;-60
2023/04/02 05:17:02;;;;;;;2.30;1.70;;;18.80;47.10;;;;;;5014897;28;20836;-64
2023/04/02 05:19:47;;;;;;;1.77;1.67;;;18.80;47.00;;;;;;5023544;28;20537;-64
2023/04/02 05:22:29;;;;;;;1.60;1.50;;;18.80;47.00;;;;;;5019663;28;20415;-61
2023/04/02 05:25:08;;;;;;;2.17;1.87;;;18.80;47.00;;;;;;5011649;28;20781;-60
2023/04/02 05:28:13;;;;;;;3.03;1.40;;;18.80;47.00;;;;;;5017048;28;20451;-62
2023/04/02 05:30:45;;;;;;;1.63;1.53;;;18.80;47.00;;;;;;5010981;28;20461;-62
2023/04/02 05:33:29;;;;;;;1.70;1.60;;;18.80;47.00;;;;;;5016222;28;20552;-63
2023/04/02 05:36:06;;;;;;;1.30;1.20;;;18.80;47.00;;;;;;5014081;28;20471;-59
2023/04/02 05:38:35;;;;;;;1.50;1.40;;;18.80;47.00;;;;;;5017056;28;20780;-61
2023/04/02 05:41:13;;;;;;;1.40;1.30;;;18.80;47.00;;;;;;5013540;28;20467;-62
2023/04/02 05:43:45;;;;;;;1.57;1.47;;;18.80;47.00;;;;;;5015794;28;20472;-61
2023/04/02 05:46:23;;;;;;;1.50;1.40;;;18.80;46.90;;;;;;5017352;28;20456;-61
2023/04/02 05:48:56;;;;;;;1.30;1.20;;;18.80;46.90;;;;;;5015639;28;20449;-62
2023/04/02 05:51:29;;;;;;;1.40;1.30;;;18.80;46.90;;;;;;5017559;28;20460;-59
2023/04/02 05:54:00;;;;;;;3.73;1.70;;;18.90;47.00;;;;;;5015245;28;20423;-63
2023/04/02 05:56:42;;;;;;;1.80;1.67;;;18.80;46.80;;;;;;5014956;28;20475;-59
2023/04/02 05:59:21;;;;;;;1.40;1.30;;;18.80;46.90;;;;;;5010294;28;20483;-59
2023/04/02 06:01:57;;;;;;;1.60;1.50;;;18.90;47.00;;;;;;5015337;28;20442;-63
2023/04/02 06:04:32;;;;;;;1.40;1.30;;;18.90;47.00;;;;;;5015430;28;20479;-60
2023/04/02 06:07:04;;;;;;;1.50;1.40;;;18.80;46.80;;;;;;5013894;28;20926;-62
2023/04/02 06:09:54;;;;;;;1.40;1.30;;;18.90;46.90;;;;;;5019282;28;20448;-62
2023/04/02 06:12:38;;;;;;;1.40;1.30;;;18.90;46.90;;;;;;5015763;28;20439;-60
2023/04/02 06:15:05;;;;;;;1.40;1.30;;;18.80;46.80;;;;;;5015099;28;20967;-64
2023/04/02 06:17:41;;;;;;;1.50;1.40;;;18.90;46.90;;;;;;5013194;28;20561;-59
2023/04/02 06:20:14;;;;;;;1.40;1.30;;;18.90;46.90;;;;;;5017791;28;20425;-60
2023/04/02 06:22:43;;;;;;;1.63;1.53;;;18.80;46.80;;;;;;5011938;28;21006;-60
2023/04/02 06:25:19;;;;;;;1.77;1.67;;;18.80;46.80;;;;;;5012285;28;21018;-61
2023/04/02 06:27:46;;;;;;;1.57;1.47;;;18.80;46.70;;;;;;5017510;28;20491;-60
2023/04/02 06:30:37;;;;;;;1.50;1.40;;;18.90;46.80;;;;;;5019644;28;20431;-59
2023/04/02 06:33:03;;;;;;;1.60;1.50;;;18.90;46.80;;;;;;5013042;28;20989;-61
2023/04/02 06:35:29;;;;;;;2.00;1.40;;;18.80;46.80;;;;;;5020330;28;20456;-60
2023/04/02 06:37:58;;;;;;;1.57;1.47;;;18.90;46.80;;;;;;5010209;28;20546;-62
2023/04/02 06:40:45;;;;;;;1.40;1.30;;;18.80;46.70;;;;;;5014620;28;20464;-59
2023/04/02 06:43:41;;;;;;;1.60;1.50;;;18.80;46.70;;;;;;5016069;28;20464;-60
2023/04/02 06:46:20;;;;;;;1.67;1.50;;;18.90;46.80;;;;;;5008729;28;20447;-61
2023/04/02 06:48:49;;;;;;;1.80;1.70;;;18.80;46.70;;;;;;5018077;28;20544;-60
2023/04/02 06:51:19;;;;;;;2.17;1.70;;;18.80;46.70;;;;;;5014137;28;20446;-64
2023/04/02 06:53:47;;;;;;;1.33;1.23;;;18.80;46.70;;;;;;5013388;28;20438;-59
2023/04/02 06:56:24;;;;;;;1.60;1.50;;;18.90;46.10;;;;;;5013987;28;20881;-61
2023/04/02 06:58:50;;;;;;;1.40;1.30;;;18.80;46.70;;;;;;5008215;28;20450;-60
2023/04/02 07:01:26;;;;;;;1.60;1.50;;;18.90;46.70;;;;;;5015354;28;20450;-59
2023/04/02 07:03:52;;;;;;;1.70;1.60;;;18.90;46.70;;;;;;5014992;28;20228;-62
2023/04/02 07:06:20;;;;;;;1.40;1.30;;;18.90;46.80;;;;;;5012918;28;20478;-61
2023/04/02 07:08:46;;;;;;;1.60;1.50;;;18.90;46.70;;;;;;5018490;28;20226;-60
2023/04/02 07:11:17;;;;;;;1.87;1.60;;;18.90;46.70;;;;;;5008058;28;21543;-59
2023/04/02 07:13:44;;;;;;;2.47;1.60;;;18.90;46.70;;;;;;5009720;28;20817;-60
2023/04/02 07:16:27;;;;;;;2.60;2.40;;;18.90;46.70;;;;;;5009889;28;20442;-60
2023/04/02 07:18:54;;;;;;;2.47;2.37;;;18.90;46.60;;;;;;5002857;28;20457;-62
2023/04/02 07:21:21;;;;;;;2.50;2.30;;;18.90;46.50;;;;;;5014892;28;20433;-60
2023/04/02 07:23:46;;;;;;;1.80;1.70;;;19.00;46.50;;;;;;5009148;28;20426;-58
2023/04/02 07:26:14;;;;;;;1.90;1.80;;;19.00;46.50;;;;;;5009530;28;20442;-59
2023/04/02 07:28:40;;;;;;;1.50;1.40;;;19.00;46.50;;;;;;5009385;28;20249;-62
2023/04/02 07:31:26;;;;;;;1.87;1.77;;;18.90;46.40;;;;;;5011840;28;20529;-60
2023/04/02 07:33:56;;;;;;;1.90;1.80;;;19.00;46.50;;;;;;5013918;28;21118;-61
2023/04/02 07:36:23;;;;;;;1.97;1.87;;;18.90;46.40;;;;;;5012656;28;20438;-67
2023/04/02 07:38:49;;;;;;;1.90;1.67;;;18.90;46.50;;;;;;5012460;28;20503;-61
2023/04/02 07:41:16;;;;;;;4.50;1.60;;;19.00;46.70;;;;;;5015012;28;20921;-62
2023/04/02 07:43:41;;;;;;;1.63;1.53;;;18.90;46.50;;;;;;5018211;28;20449;-62
2023/04/02 07:46:09;;;;;;;1.77;1.67;;;18.90;46.50;;;;;;5020651;28;21121;-62
2023/04/02 07:48:35;;;;;;;1.87;1.77;;;18.90;46.50;;;;;;5019765;28;20227;-60
2023/04/02 07:51:02;;;;;;;2.87;1.70;;;18.90;46.50;;;;;;5019102;28;20483;-59
2023/04/02 07:53:33;;;;;;;1.57;1.47;;;18.90;46.60;;;;;;5015717;28;20452;-62
2023/04/02 07:56:01;;;;;;;1.63;1.53;;;18.90;46.60;;;;;;5016355;28;20481;-60
2023/04/02 07:58:31;;;;;;;1.50;1.40;;;18.90;46.60;;;;;;5008412;28;20439;-66
2023/04/02 08:00:57;;;;;;;1.90;1.67;;;18.90;46.60;;;;;;5009957;28;20521;-64
2023/04/02 08:03:23;;;;;;;1.50;1.40;;;18.90;46.60;;;;;;5009618;28;20518;-63
2023/04/02 08:05:50;;;;;;;1.80;1.70;;;18.90;46.70;;;;;;5012911;28;20529;-67
2023/04/02 08:08:16;;;;;;;1.63;1.53;;;18.90;46.60;;;;;;5018358;28;20310;-64
2023/04/02 08:10:41;;;;;;;1.70;1.60;;;18.90;46.60;;;;;;5013878;28;20444;-61
2023/04/02 08:13:07;;;;;;;1.77;1.67;;;18.90;46.70;;;;;;5011913;28;20229;-60
2023/04/02 08:15:32;;;;;;;3.63;1.70;;;18.90;46.60;;;;;;5010079;28;20218;-64
2023/04/02 08:17:58;;;;;;;2.17;1.50;;;18.90;46.60;;;;;;5014370;28;20309;-61
2023/04/02 08:20:23;;;;;;;1.70;1.60;;;18.90;46.60;;;;;;5012187;28;20674;-61
2023/04/02 08:22:49;;;;;;;2.13;1.70;;;18.90;46.60;;;;;;5013668;28;20230;-63
2023/04/02 08:25:16;;;;;;;1.80;1.70;;;18.90;46.60;;;;;;5021553;28;20227;-60
2023/04/02 08:27:41;;;;;;;1.73;1.63;;;18.90;46.60;;;;;;5013669;28;20304;-62
2023/04/02 08:30:08;;;;;;;2.70;1.60;;;18.90;46.60;;;;;;5016687;28;20443;-60
2023/04/02 08:32:34;;;;;;;1.60;1.50;;;18.90;46.50;;;;;;5015756;28;20309;-61
2023/04/02 08:35:00;;;;;;;1.70;1.60;;;18.90;46.50;;;;;;5014439;28;20429;-63
2023/04/02 08:37:26;;;;;;;1.63;1.53;;;18.90;46.50;;;;;;5005497;28;20970;-64
2023/04/02 08:39:51;;;;;;;1.63;1.53;;;18.90;46.50;;;;;;5012520;28;20234;-60
2023/04/02 08:42:32;;;;;;;1.60;1.50;;;18.90;46.50;;;;;;5013652;28;20262;-67
2023/04/02 08:45:32;;;;;;;1.60;1.50;;;18.90;46.50;;;;;;5011960;28;20301;-63
2023/04/02 08:47:58;;;;;;;1.50;1.40;;;18.90;46.50;;;;;;5004535;28;20971;-61
2023/04/02 08:50:30;;;;;;;1.60;1.50;;;18.90;46.50;;;;;;5014501;28;20472;-62
2023/04/02 08:52:57;;;;;;;1.53;1.43;;;18.90;46.50;;;;;;5017029;28;20800;-59
2023/04/02 08:55:46;;;;;;;1.63;1.53;;;18.90;46.50;;;;;;5011045;28;20475;-61
2023/04/02 08:58:27;;;;;;;1.63;1.53;;;18.90;46.40;;;;;;5006227;28;20562;-64
2023/04/02 09:00:54;;;;;;;1.60;1.50;;;18.90;46.30;;;;;;5012185;28;22044;-59
2023/04/02 09:03:30;;;;;;;2.80;1.70;;;18.90;46.30;;;;;;5008383;28;20430;-64
2023/04/02 09:05:58;;;;;;;3.70;1.60;;;19.00;46.40;;;;;;5012231;28;20812;-61
2023/04/02 09:08:26;;;;;;;2.87;1.70;;;19.00;46.40;;;;;;5006548;28;21085;-66
2023/04/02 09:11:03;;;;;;;2.30;1.97;;;19.00;46.30;;;;;;5009181;28;20488;-61
2023/04/02 09:13:31;;;;;;;2.00;1.90;;;19.00;46.50;;;;;;4997674;28;20565;-61
2023/04/02 09:16:10;;;;;;;5.70;1.70;;;19.00;46.50;;;;;;5016773;28;20481;-62
2023/04/02 09:18:37;;;;;;;9.07;2.27;;;19.00;46.50;;;;;;5013455;28;20475;-63
2023/04/02 09:21:20;;;;;;;6.70;1.87;;;19.00;46.60;;;;;;5009964;28;20427;-60
2023/04/02 09:23:46;;;;;;;4.60;1.77;;;18.90;46.50;;;;;;5004221;28;20563;-60
2023/04/02 09:26:26;;;;;;;3.83;1.90;;;18.90;46.50;;;;;;5008225;28;20445;-66
2023/04/02 09:28:58;;;;;;;4.40;2.50;;;18.90;46.60;;;;;;5012062;28;20416;-62
2023/04/02 09:31:36;;;;;;;2.80;1.70;;;18.90;46.60;;;;;;5012033;28;20926;-63
2023/04/02 09:34:26;;;;;;;3.10;2.10;;;18.90;46.60;;;;;;5010091;28;20450;-63
2023/04/02 09:36:51;;;;;;;3.50;2.00;;;18.90;46.60;;;;;;5017821;28;20443;-59
2023/04/02 09:39:20;;;;;;;1.70;1.60;;;18.90;46.70;;;;;;5014587;28;20430;-62
2023/04/02 09:41:46;;;;;;;2.17;1.90;;;18.90;46.70;;;;;;5009112;28;20237;-60
2023/04/02 09:44:25;;;;;;;2.30;1.40;;;18.90;46.80;;;;;;5016695;28;20430;-60
2023/04/02 09:46:58;;;;;;;2.70;2.50;;;18.90;46.70;;;;;;5015154;28;20446;-59
2023/04/02 09:49:26;;;;;;;3.10;1.80;;;18.90;46.80;;;;;;5013679;28;20422;-59
2023/04/02 09:52:14;;;;;;;2.40;2.20;;;18.90;46.70;;;;;;5010574;28;20443;-64
2023/04/02 09:54:43;;;;;;;2.57;2.00;;;18.90;46.60;;;;;;5010657;28;20468;-63
2023/04/02 09:57:23;;;;;;;2.60;1.70;;;18.90;46.70;;;;;;5011399;28;21074;-66
2023/04/02 10:00:12;;;;;;;1.93;1.80;;;18.90;46.70;;;;;;5012563;28;20457;-61
2023/04/02 10:02:38;;;;;;;1.87;1.77;;;18.90;46.70;;;;;;5011654;28;20464;-60
2023/04/02 10:05:06;;;;;;;2.47;1.80;;;18.90;46.70;;;;;;5017702;28;20430;-64
2023/04/02 10:07:40;;;;;;;2.33;1.57;;;18.90;46.70;;;;;;5009843;28;20431;-64
2023/04/02 10:10:30;;;;;;;1.80;1.70;;;18.90;46.70;;;;;;5006190;28;20460;-59
2023/04/02 10:13:16;;;;;;;2.13;2.03;;;18.90;46.70;;;;;;5012239;28;20425;-60
2023/04/02 10:15:53;;;;;;;2.13;1.93;;;18.90;46.70;;;;;;5009090;28;20442;-61
2023/04/02 10:18:42;;;;;;;1.73;1.63;;;18.90;46.70;;;;;;5011831;28;20998;-60
2023/04/02 10:21:14;;;;;;;2.57;2.13;;;18.90;46.70;;;;;;5016631;28;20487;-60
2023/04/02 10:23:40;;;;;;;2.23;2.03;;;18.90;46.80;;;;;;5011243;28;20472;-59
2023/04/02 10:26:20;;;;;;;2.73;1.70;;;18.90;46.70;;;;;;5013987;28;20441;-59
2023/04/02 10:29:23;;;;;;;4.20;1.87;;;18.90;46.80;;;;;;5015668;28;20825;-59
2023/04/02 10:31:58;;;;;;;2.90;1.50;;;18.90;46.70;;;;;;5012317;28;20442;-61
2023/04/02 10:34:39;;;;;;;1.70;1.60;;;18.90;46.70;;;;;;5014715;28;20506;-61
2023/04/02 10:37:42;;;;;;;2.83;2.00;;;18.90;46.70;;;;;;5011423;28;21236;-60
2023/04/02 10:40:15;;;;;;;1.70;1.60;;;18.90;46.80;;;;;;5013082;28;20467;-62
2023/04/02 10:43:11;;;;;;;2.03;1.93;;;18.90;46.80;;;;;;5008922;28;20472;-60
2023/04/02 10:46:00;;;;;;;3.13;2.00;;;18.90;46.70;;;;;;4988666;28;20453;-59
2023/04/02 10:49:11;;;;;;;2.87;2.57;;;18.90;46.70;;;;;;5015101;28;20548;-59
2023/04/02 10:51:56;;;;;;;3.13;1.80;;;18.90;46.70;;;;;;4947805;28;20475;-58
2023/04/02 10:54:52;;;;;;;2.03;1.87;;;18.90;46.70;;;;;;4953488;28;20443;-65
2023/04/02 10:57:33;;;;;;;2.43;1.50;;;18.90;46.70;;;;;;4999598;28;20854;-58
2023/04/02 11:00:08;;;;;;;1.90;1.80;;;18.90;46.70;;;;;;5016569;28;20505;-63
2023/04/02 11:03:05;;;;;;;1.90;1.70;;;18.90;46.70;;;;;;5014825;28;20474;-61
2023/04/02 11:05:42;;;;;;;1.97;1.80;;;18.90;46.70;;;;;;5016841;28;20431;-59
2023/04/02 11:08:21;;;;;;;2.17;1.97;;;18.90;46.70;;;;;;5013776;28;20467;-67
2023/04/02 11:10:58;;;;;;;3.20;2.57;;;18.90;46.70;;;;;;5016913;28;20472;-62
2023/04/02 11:13:38;;;;;;;2.50;2.13;;;18.90;46.70;;;;;;5019015;28;20414;-60
2023/04/02 11:16:05;;;;;;;2.10;2.00;;;18.90;46.60;;;;;;5022045;28;20497;-58
2023/04/02 11:18:34;;;;;;;2.30;2.20;;;18.80;46.50;;;;;;5023134;28;20504;-63
2023/04/02 11:21:25;;;;;;;2.87;2.20;;;18.80;46.40;;;;;;5016241;28;20414;-62
2023/04/02 11:24:02;;;;;;;3.47;2.10;;;18.80;46.40;;;;;;5015309;28;20918;-59
2023/04/02 11:26:40;;;;;;;2.17;2.07;;;18.90;46.40;;;;;;5022339;28;20841;-61
2023/04/02 11:29:21;;;;;;;2.17;1.90;;;18.80;46.20;;;;;;5014393;28;20942;-63
2023/04/02 11:31:48;;;;;;;2.80;1.90;;;18.80;46.20;;;;;;5007732;28;20512;-62
2023/04/02 11:34:37;;;;;;;1.70;1.60;;;18.80;46.10;;;;;;5013712;28;20553;-66
2023/04/02 11:37:08;;;;;;;2.30;2.10;;;18.80;46.10;;;;;;5010359;28;20480;-63
2023/04/02 11:39:52;;;;;;;1.93;1.63;;;18.90;46.10;;;;;;5016953;28;20550;-63
2023/04/02 11:42:17;;;;;;;2.10;2.00;;;18.80;45.90;;;;;;5010187;28;21389;-62
2023/04/02 11:44:43;;;;;;;1.90;1.80;;;18.80;45.80;;;;;;5018238;28;20445;-62
2023/04/02 11:47:28;;;;;;;1.90;1.80;;;18.80;45.80;;;;;;5014051;28;20401;-60
2023/04/02 11:49:54;;;;;;;1.80;1.70;;;18.80;45.60;;;;;;5014510;28;20933;-60
2023/04/02 11:52:26;;;;;;;2.90;2.70;;;18.90;45.70;;;;;;5015674;28;20449;-59
2023/04/02 11:55:00;;;;;;;2.30;2.10;;;18.90;45.70;;;;;;5018700;28;20214;-60
2023/04/02 11:58:05;;;;;;;2.47;1.70;;;18.80;45.50;;;;;;5016566;28;20590;-60
2023/04/02 12:00:36;;;;;;;2.43;1.90;;;18.90;45.60;;;;;;4983233;28;20491;-60
2023/04/02 12:03:19;;;;;;;1.70;1.60;;;18.80;45.50;;;;;;5011758;28;20926;-59
2023/04/02 12:06:12;;;;;;;2.10;1.90;;;18.90;45.60;;;;;;5012324;28;20434;-62
2023/04/02 12:08:53;;;;;;;2.10;1.90;;;18.90;45.50;;;;;;5009566;28;20491;-62
2023/04/02 12:11:37;;;;;;;1.93;1.80;;;18.80;45.40;;;;;;5012986;28;20440;-60
2023/04/02 12:14:35;;;;;;;1.90;1.80;;;18.80;45.40;;;;;;5014810;28;20438;-60
2023/04/02 12:17:03;;;;;;;3.00;1.80;;;18.80;45.50;;;;;;5012649;28;20521;-59
2023/04/02 12:19:30;;;;;;;2.33;2.23;;;18.80;45.40;;;;;;5014599;28;20470;-60
2023/04/02 12:21:58;;;;;;;6.77;1.90;;;18.80;45.40;;;;;;5015909;28;20450;-60
2023/04/02 12:24:30;;;;;;;4.10;2.00;;;18.80;45.40;;;;;;5014696;28;20431;-58
2023/04/02 12:27:21;;;;;;;1.83;1.73;;;18.80;45.30;;;;;;5017517;28;20434;-61
2023/04/02 12:29:48;;;;;;;2.03;1.87;;;18.80;45.40;;;;;;5012064;28;20432;-61
2023/04/02 12:32:28;;;;;;;2.17;1.60;;;18.80;45.30;;;;;;5015929;28;20434;-61
2023/04/02 12:34:58;;;;;;;3.50;2.37;;;18.80;45.30;;;;;;5008167;28;20446;-61
2023/04/02 12:37:27;;;;;;;2.00;1.90;;;18.70;45.20;;;;;;5009100;28;21336;-61
2023/04/02 12:40:14;;;;;;;1.67;1.57;;;18.80;45.30;;;;;;5013362;28;20512;-63
2023/04/02 12:42:40;;;;;;;2.40;1.80;;;18.80;45.30;;;;;;5007152;28;20530;-63
2023/04/02 12:45:07;;;;;;;2.00;1.90;;;18.80;45.30;;;;;;5003784;28;20604;-63
2023/04/02 12:47:32;;;;;;;1.83;1.73;;;18.80;45.20;;;;;;5009405;28;20308;-62
2023/04/02 12:50:00;;;;;;;2.03;1.93;;;18.80;45.20;;;;;;5011309;28;20917;-59
2023/04/02 12:52:28;;;;;;;1.70;1.60;;;18.70;45.10;;;;;;5014163;28;20693;-64
2023/04/02 12:54:57;;;;;;;2.17;2.00;;;18.80;45.20;;;;;;5014993;28;21252;-61
2023/04/02 12:57:25;;;;;;;2.17;2.00;;;18.80;45.20;;;;;;5013875;28;20928;-61
2023/04/02 13:00:05;;;;;;;2.07;1.80;;;18.80;45.20;;;;;;5011938;28;21379;-59
2023/04/02 13:02:42;;;;;;;1.93;1.77;;;18.70;45.10;;;;;;5010320;28;20988;-59
2023/04/02 13:05:08;;;;;;;5.90;2.00;;;18.70;45.10;;;;;;5007179;28;20446;-60
2023/04/02 13:07:34;;;;;;;9.73;2.47;;;18.80;45.20;;;;;;5012569;28;20453;-62
2023/04/02 13:10:05;;;;;;;2.37;2.17;;;18.80;45.20;;;;;;5012261;28;21023;-63
2023/04/02 13:12:36;;;;;;;2.27;2.07;;;18.80;45.10;;;;;;5014446;28;20235;-61
2023/04/02 13:15:05;;;;;;;3.20;1.90;;;18.80;45.10;;;;;;5014746;28;21615;-60
2023/04/02 13:17:47;;;;;;;3.03;1.93;;;18.80;45.10;;;;;;5013248;28;20923;-60
2023/04/02 13:20:38;;;;;;;3.73;2.40;;;18.80;45.00;;;;;;5013080;28;20430;-63
2023/04/02 13:23:23;;;;;;;6.53;2.10;;;18.80;45.00;;;;;;5012000;28;20543;-62
2023/04/02 13:25:49;;;;;;;2.47;2.27;;;18.90;45.10;;;;;;5011471;28;20562;-59
2023/04/02 13:28:15;;;;;;;1.93;1.60;;;18.80;45.10;;;;;;5009701;28;20455;-59
2023/04/02 13:30:40;;;;;;;4.57;1.83;;;18.80;45.00;;;;;;5021884;28;20435;-59